sensor_id;sensor_type;location;lat;lon;timestamp;P1;durP1;ratioP1;P2;durP2;ratioP2
8909;SDS011;4490;49.072;8.804;2023-06-19T00:01:57;8.38;;;7.03;;
8909;SDS011;4490;49.072;8.804;2023-06-19T00:04:23;7.95;;;7.15;;
8909;SDS011;4490;49.072;8.804;2023-06-19T00:06:49;8.18;;;7.47;;
8909;SDS011;4490;49.072;8.804;2023-06-19T00:09:14;8.18;;;7.50;;
8909;SDS011;4490;49.072;8.804;2023-06-19T00:11:40;8.10;;;7.30;;
8909;SDS011;4490;49.072;8.804;2023-06-19T00:14:06;9.60;;;7.57;;
8909;SDS011;4490;49.072;8.804;2023-06-19T00:16:32;7.97;;;6.95;;
8909;SDS011;4490;49.072;8.804;2023-06-19T00:18:57;7.80;;;7.10;;
8909;SDS011;4490;49.072;8.804;2023-06-19T00:21:23;7.80;;;7.10;;
8909;SDS011;4490;49.072;8.804;2023-06-19T00:23:50;7.90;;;7.13;;
8909;SDS011;4490;49.072;8.804;2023-06-19T00:26:16;11.45;;;7.45;;
8909;SDS011;4490;49.072;8.804;2023-06-19T00:28:42;8.30;;;7.45;;
8909;SDS011;4490;49.072;8.804;2023-06-19T00:31:10;8.45;;;7.10;;
8909;SDS011;4490;49.072;8.804;2023-06-19T00:33:39;7.88;;;7.05;;
8909;SDS011;4490;49.072;8.804;2023-06-19T00:36:08;8.10;;;7.38;;
8909;SDS011;4490;49.072;8.804;2023-06-19T00:38:35;8.73;;;7.82;;
8909;SDS011;4490;49.072;8.804;2023-06-19T00:41:01;9.90;;;7.50;;
8909;SDS011;4490;49.072;8.804;2023-06-19T00:43:28;9.60;;;8.77;;
8909;SDS011;4490;49.072;8.804;2023-06-19T00:45:55;9.70;;;8.80;;
8909;SDS011;4490;49.072;8.804;2023-06-19T00:48:22;10.02;;;9.02;;
8909;SDS011;4490;49.072;8.804;2023-06-19T00:50:49;9.70;;;7.50;;
8909;SDS011;4490;49.072;8.804;2023-06-19T00:53:15;8.10;;;7.30;;
8909;SDS011;4490;49.072;8.804;2023-06-19T00:55:42;12.35;;;6.80;;
8909;SDS011;4490;49.072;8.804;2023-06-19T00:58:09;7.18;;;6.47;;
8909;SDS011;4490;49.072;8.804;2023-06-19T01:00:35;8.45;;;6.35;;
8909;SDS011;4490;49.072;8.804;2023-06-19T01:03:00;9.50;;;6.18;;
8909;SDS011;4490;49.072;8.804;2023-06-19T01:05:26;13.15;;;6.00;;
8909;SDS011;4490;49.072;8.804;2023-06-19T01:07:59;7.82;;;5.25;;
8909;SDS011;4490;49.072;8.804;2023-06-19T01:10:36;10.93;;;5.18;;
8909;SDS011;4490;49.072;8.804;2023-06-19T01:15:40;5.45;;;4.75;;
8909;SDS011;4490;49.072;8.804;2023-06-19T01:18:07;4.93;;;4.53;;
8909;SDS011;4490;49.072;8.804;2023-06-19T01:20:36;6.63;;;4.55;;
8909;SDS011;4490;49.072;8.804;2023-06-19T01:23:09;8.55;;;4.32;;
8909;SDS011;4490;49.072;8.804;2023-06-19T01:25:35;7.57;;;4.10;;
8909;SDS011;4490;49.072;8.804;2023-06-19T01:28:04;4.85;;;4.00;;
8909;SDS011;4490;49.072;8.804;2023-06-19T01:30:34;5.97;;;4.00;;
8909;SDS011;4490;49.072;8.804;2023-06-19T01:33:09;6.25;;;3.50;;
8909;SDS011;4490;49.072;8.804;2023-06-19T01:35:56;3.88;;;3.58;;
8909;SDS011;4490;49.072;8.804;2023-06-19T01:38:23;4.60;;;3.28;;
8909;SDS011;4490;49.072;8.804;2023-06-19T01:40:52;4.10;;;3.40;;
8909;SDS011;4490;49.072;8.804;2023-06-19T01:43:19;6.97;;;3.38;;
8909;SDS011;4490;49.072;8.804;2023-06-19T01:45:45;3.30;;;3.00;;
8909;SDS011;4490;49.072;8.804;2023-06-19T01:48:11;7.35;;;3.15;;
8909;SDS011;4490;49.072;8.804;2023-06-19T01:50:37;3.47;;;2.60;;
8909;SDS011;4490;49.072;8.804;2023-06-19T01:53:03;2.90;;;2.63;;
8909;SDS011;4490;49.072;8.804;2023-06-19T01:55:28;5.18;;;2.50;;
8909;SDS011;4490;49.072;8.804;2023-06-19T01:57:54;3.30;;;2.47;;
8909;SDS011;4490;49.072;8.804;2023-06-19T02:00:20;2.90;;;2.67;;
8909;SDS011;4490;49.072;8.804;2023-06-19T02:02:46;4.75;;;2.80;;
8909;SDS011;4490;49.072;8.804;2023-06-19T02:05:12;4.72;;;2.90;;
8909;SDS011;4490;49.072;8.804;2023-06-19T02:07:38;2.70;;;2.50;;
8909;SDS011;4490;49.072;8.804;2023-06-19T02:10:04;4.78;;;2.47;;
8909;SDS011;4490;49.072;8.804;2023-06-19T02:12:31;3.45;;;1.95;;
8909;SDS011;4490;49.072;8.804;2023-06-19T02:14:56;5.90;;;2.55;;
8909;SDS011;4490;49.072;8.804;2023-06-19T02:17:22;2.88;;;2.30;;
8909;SDS011;4490;49.072;8.804;2023-06-19T02:19:47;3.00;;;2.35;;
8909;SDS011;4490;49.072;8.804;2023-06-19T02:22:13;3.97;;;2.75;;
8909;SDS011;4490;49.072;8.804;2023-06-19T02:24:38;2.58;;;2.38;;
8909;SDS011;4490;49.072;8.804;2023-06-19T02:27:04;5.22;;;2.67;;
8909;SDS011;4490;49.072;8.804;2023-06-19T02:29:31;3.65;;;2.72;;
8909;SDS011;4490;49.072;8.804;2023-06-19T02:31:58;3.60;;;2.83;;
8909;SDS011;4490;49.072;8.804;2023-06-19T02:34:24;3.47;;;2.88;;
8909;SDS011;4490;49.072;8.804;2023-06-19T02:36:50;3.25;;;2.95;;
8909;SDS011;4490;49.072;8.804;2023-06-19T02:39:15;3.75;;;2.78;;
8909;SDS011;4490;49.072;8.804;2023-06-19T02:41:42;4.88;;;2.95;;
8909;SDS011;4490;49.072;8.804;2023-06-19T02:44:10;4.10;;;2.88;;
8909;SDS011;4490;49.072;8.804;2023-06-19T02:46:39;3.28;;;2.92;;
8909;SDS011;4490;49.072;8.804;2023-06-19T02:49:05;3.50;;;2.90;;
8909;SDS011;4490;49.072;8.804;2023-06-19T02:51:31;3.03;;;2.83;;
8909;SDS011;4490;49.072;8.804;2023-06-19T02:53:56;3.25;;;2.90;;
8909;SDS011;4490;49.072;8.804;2023-06-19T02:56:22;4.57;;;3.05;;
8909;SDS011;4490;49.072;8.804;2023-06-19T02:58:49;5.00;;;2.97;;
8909;SDS011;4490;49.072;8.804;2023-06-19T03:01:14;3.08;;;2.85;;
8909;SDS011;4490;49.072;8.804;2023-06-19T03:03:40;3.42;;;3.13;;
8909;SDS011;4490;49.072;8.804;2023-06-19T03:06:06;4.13;;;3.17;;
8909;SDS011;4490;49.072;8.804;2023-06-19T03:08:36;3.47;;;3.17;;
8909;SDS011;4490;49.072;8.804;2023-06-19T03:11:02;3.03;;;2.80;;
8909;SDS011;4490;49.072;8.804;2023-06-19T03:13:33;3.35;;;3.03;;
8909;SDS011;4490;49.072;8.804;2023-06-19T03:16:08;3.40;;;3.10;;
8909;SDS011;4490;49.072;8.804;2023-06-19T03:18:34;3.42;;;3.13;;
8909;SDS011;4490;49.072;8.804;2023-06-19T03:21:00;3.50;;;3.20;;
8909;SDS011;4490;49.072;8.804;2023-06-19T03:23:25;3.10;;;2.90;;
8909;SDS011;4490;49.072;8.804;2023-06-19T03:25:51;3.50;;;3.20;;
8909;SDS011;4490;49.072;8.804;2023-06-19T03:28:16;3.30;;;3.00;;
8909;SDS011;4490;49.072;8.804;2023-06-19T03:30:42;4.57;;;3.30;;
8909;SDS011;4490;49.072;8.804;2023-06-19T03:33:07;3.47;;;3.17;;
8909;SDS011;4490;49.072;8.804;2023-06-19T03:35:33;3.17;;;2.97;;
8909;SDS011;4490;49.072;8.804;2023-06-19T03:37:58;3.42;;;3.13;;
8909;SDS011;4490;49.072;8.804;2023-06-19T03:40:24;3.33;;;3.13;;
8909;SDS011;4490;49.072;8.804;2023-06-19T03:42:50;3.03;;;2.83;;
8909;SDS011;4490;49.072;8.804;2023-06-19T03:45:15;3.20;;;2.95;;
8909;SDS011;4490;49.072;8.804;2023-06-19T03:47:41;4.45;;;3.67;;
8909;SDS011;4490;49.072;8.804;2023-06-19T03:50:07;4.25;;;3.85;;
8909;SDS011;4490;49.072;8.804;2023-06-19T03:52:35;3.92;;;3.53;;
8909;SDS011;4490;49.072;8.804;2023-06-19T03:55:02;3.80;;;3.50;;
8909;SDS011;4490;49.072;8.804;2023-06-19T03:57:28;3.50;;;3.20;;
8909;SDS011;4490;49.072;8.804;2023-06-19T03:59:54;3.80;;;3.50;;
8909;SDS011;4490;49.072;8.804;2023-06-19T04:02:19;3.58;;;3.28;;
8909;SDS011;4490;49.072;8.804;2023-06-19T04:04:45;3.90;;;3.25;;
8909;SDS011;4490;49.072;8.804;2023-06-19T04:07:11;3.58;;;3.28;;
8909;SDS011;4490;49.072;8.804;2023-06-19T04:09:36;3.60;;;3.30;;
8909;SDS011;4490;49.072;8.804;2023-06-19T04:12:02;3.60;;;3.30;;
8909;SDS011;4490;49.072;8.804;2023-06-19T04:14:28;3.80;;;3.40;;
8909;SDS011;4490;49.072;8.804;2023-06-19T04:16:54;3.75;;;3.40;;
8909;SDS011;4490;49.072;8.804;2023-06-19T04:19:20;4.43;;;3.60;;
8909;SDS011;4490;49.072;8.804;2023-06-19T04:21:45;4.00;;;3.70;;
8909;SDS011;4490;49.072;8.804;2023-06-19T04:24:11;3.45;;;3.15;;
8909;SDS011;4490;49.072;8.804;2023-06-19T04:26:36;4.00;;;3.63;;
8909;SDS011;4490;49.072;8.804;2023-06-19T04:29:02;3.55;;;3.25;;
8909;SDS011;4490;49.072;8.804;2023-06-19T04:31:28;3.80;;;3.50;;
8909;SDS011;4490;49.072;8.804;2023-06-19T04:33:55;4.43;;;3.42;;
8909;SDS011;4490;49.072;8.804;2023-06-19T04:36:21;4.03;;;3.72;;
8909;SDS011;4490;49.072;8.804;2023-06-19T04:38:47;3.88;;;3.58;;
8909;SDS011;4490;49.072;8.804;2023-06-19T04:41:16;3.38;;;3.17;;
8909;SDS011;4490;49.072;8.804;2023-06-19T04:43:42;3.83;;;3.40;;
8909;SDS011;4490;49.072;8.804;2023-06-19T04:46:07;4.18;;;3.72;;
8909;SDS011;4490;49.072;8.804;2023-06-19T04:48:33;4.82;;;3.70;;
8909;SDS011;4490;49.072;8.804;2023-06-19T04:51:01;4.20;;;3.53;;
8909;SDS011;4490;49.072;8.804;2023-06-19T04:53:27;3.70;;;3.40;;
8909;SDS011;4490;49.072;8.804;2023-06-19T04:55:53;4.35;;;3.95;;
8909;SDS011;4490;49.072;8.804;2023-06-19T04:58:20;3.83;;;3.53;;
8909;SDS011;4490;49.072;8.804;2023-06-19T05:00:46;3.88;;;3.58;;
8909;SDS011;4490;49.072;8.804;2023-06-19T05:03:18;4.85;;;3.65;;
8909;SDS011;4490;49.072;8.804;2023-06-19T05:05:44;4.22;;;3.83;;
8909;SDS011;4490;49.072;8.804;2023-06-19T05:08:10;4.03;;;3.63;;
8909;SDS011;4490;49.072;8.804;2023-06-19T05:10:37;3.80;;;3.50;;
8909;SDS011;4490;49.072;8.804;2023-06-19T05:13:02;4.13;;;3.70;;
8909;SDS011;4490;49.072;8.804;2023-06-19T05:15:28;3.80;;;3.50;;
8909;SDS011;4490;49.072;8.804;2023-06-19T05:17:53;3.80;;;3.50;;
8909;SDS011;4490;49.072;8.804;2023-06-19T05:20:19;4.13;;;3.65;;
8909;SDS011;4490;49.072;8.804;2023-06-19T05:22:45;4.85;;;3.67;;
8909;SDS011;4490;49.072;8.804;2023-06-19T05:25:10;3.55;;;3.25;;
8909;SDS011;4490;49.072;8.804;2023-06-19T05:27:36;3.88;;;3.55;;
8909;SDS011;4490;49.072;8.804;2023-06-19T05:30:02;3.65;;;3.20;;
8909;SDS011;4490;49.072;8.804;2023-06-19T05:32:29;5.13;;;3.63;;
8909;SDS011;4490;49.072;8.804;2023-06-19T05:34:55;5.15;;;3.55;;
8909;SDS011;4490;49.072;8.804;2023-06-19T05:37:21;3.97;;;3.28;;
8909;SDS011;4490;49.072;8.804;2023-06-19T05:39:47;4.32;;;3.60;;
8909;SDS011;4490;49.072;8.804;2023-06-19T05:42:13;3.90;;;3.50;;
8909;SDS011;4490;49.072;8.804;2023-06-19T05:44:39;3.78;;;3.45;;
8909;SDS011;4490;49.072;8.804;2023-06-19T05:47:05;3.88;;;3.20;;
8909;SDS011;4490;49.072;8.804;2023-06-19T05:49:31;4.05;;;3.40;;
8909;SDS011;4490;49.072;8.804;2023-06-19T05:51:56;3.42;;;3.13;;
8909;SDS011;4490;49.072;8.804;2023-06-19T05:54:24;3.42;;;3.13;;
8909;SDS011;4490;49.072;8.804;2023-06-19T05:56:50;3.67;;;3.38;;
8909;SDS011;4490;49.072;8.804;2023-06-19T05:59:16;5.00;;;3.40;;
8909;SDS011;4490;49.072;8.804;2023-06-19T06:01:41;3.83;;;3.38;;
8909;SDS011;4490;49.072;8.804;2023-06-19T06:04:08;3.35;;;3.05;;
8909;SDS011;4490;49.072;8.804;2023-06-19T06:06:33;3.25;;;3.05;;
8909;SDS011;4490;49.072;8.804;2023-06-19T06:09:00;3.50;;;3.20;;
8909;SDS011;4490;49.072;8.804;2023-06-19T06:11:25;4.70;;;3.58;;
8909;SDS011;4490;49.072;8.804;2023-06-19T06:13:51;3.88;;;3.53;;
8909;SDS011;4490;49.072;8.804;2023-06-19T06:16:17;4.00;;;3.70;;
8909;SDS011;4490;49.072;8.804;2023-06-19T06:18:42;3.83;;;3.53;;
8909;SDS011;4490;49.072;8.804;2023-06-19T06:21:09;4.03;;;3.70;;
8909;SDS011;4490;49.072;8.804;2023-06-19T06:23:35;3.85;;;3.55;;
8909;SDS011;4490;49.072;8.804;2023-06-19T06:26:00;3.67;;;3.33;;
8909;SDS011;4490;49.072;8.804;2023-06-19T06:28:27;3.75;;;3.33;;
8909;SDS011;4490;49.072;8.804;2023-06-19T06:30:54;3.80;;;3.40;;
8909;SDS011;4490;49.072;8.804;2023-06-19T06:33:20;3.70;;;3.40;;
8909;SDS011;4490;49.072;8.804;2023-06-19T06:35:45;3.67;;;3.33;;
8909;SDS011;4490;49.072;8.804;2023-06-19T06:38:11;4.10;;;3.70;;
8909;SDS011;4490;49.072;8.804;2023-06-19T06:40:36;3.95;;;3.65;;
8909;SDS011;4490;49.072;8.804;2023-06-19T06:43:02;4.43;;;3.47;;
8909;SDS011;4490;49.072;8.804;2023-06-19T06:45:28;4.07;;;3.65;;
8909;SDS011;4490;49.072;8.804;2023-06-19T06:47:53;3.72;;;3.42;;
8909;SDS011;4490;49.072;8.804;2023-06-19T06:50:19;3.70;;;3.40;;
8909;SDS011;4490;49.072;8.804;2023-06-19T06:52:44;4.28;;;3.88;;
8909;SDS011;4490;49.072;8.804;2023-06-19T06:55:10;4.20;;;3.80;;
8909;SDS011;4490;49.072;8.804;2023-06-19T06:57:36;4.03;;;3.63;;
8909;SDS011;4490;49.072;8.804;2023-06-19T07:00:02;4.82;;;4.03;;
8909;SDS011;4490;49.072;8.804;2023-06-19T07:02:29;4.18;;;3.80;;
8909;SDS011;4490;49.072;8.804;2023-06-19T07:04:54;4.18;;;3.88;;
8909;SDS011;4490;49.072;8.804;2023-06-19T07:07:20;4.32;;;3.92;;
8909;SDS011;4490;49.072;8.804;2023-06-19T07:09:46;5.85;;;4.13;;
8909;SDS011;4490;49.072;8.804;2023-06-19T07:12:12;4.30;;;3.83;;
8909;SDS011;4490;49.072;8.804;2023-06-19T07:14:37;4.55;;;4.15;;
8909;SDS011;4490;49.072;8.804;2023-06-19T07:17:03;4.20;;;3.80;;
8909;SDS011;4490;49.072;8.804;2023-06-19T07:19:32;4.80;;;4.40;;
8909;SDS011;4490;49.072;8.804;2023-06-19T07:21:57;5.15;;;4.07;;
8909;SDS011;4490;49.072;8.804;2023-06-19T07:24:23;5.20;;;4.10;;
8909;SDS011;4490;49.072;8.804;2023-06-19T07:26:49;5.13;;;3.75;;
8909;SDS011;4490;49.072;8.804;2023-06-19T07:29:15;3.65;;;3.35;;
8909;SDS011;4490;49.072;8.804;2023-06-19T07:31:40;4.45;;;3.90;;
8909;SDS011;4490;49.072;8.804;2023-06-19T07:34:07;4.50;;;4.10;;
8909;SDS011;4490;49.072;8.804;2023-06-19T07:36:33;4.30;;;3.70;;
8909;SDS011;4490;49.072;8.804;2023-06-19T07:38:59;3.80;;;3.50;;
8909;SDS011;4490;49.072;8.804;2023-06-19T07:41:25;3.63;;;3.42;;
8909;SDS011;4490;49.072;8.804;2023-06-19T07:43:50;4.00;;;3.67;;
8909;SDS011;4490;49.072;8.804;2023-06-19T07:46:16;3.72;;;3.42;;
8909;SDS011;4490;49.072;8.804;2023-06-19T07:48:42;4.85;;;3.60;;
8909;SDS011;4490;49.072;8.804;2023-06-19T07:51:07;5.70;;;3.72;;
8909;SDS011;4490;49.072;8.804;2023-06-19T07:53:33;4.68;;;3.85;;
8909;SDS011;4490;49.072;8.804;2023-06-19T07:55:59;4.35;;;3.95;;
8909;SDS011;4490;49.072;8.804;2023-06-19T07:58:24;4.32;;;3.92;;
8909;SDS011;4490;49.072;8.804;2023-06-19T08:00:50;3.80;;;3.50;;
8909;SDS011;4490;49.072;8.804;2023-06-19T08:03:16;4.00;;;3.60;;
8909;SDS011;4490;49.072;8.804;2023-06-19T08:05:41;3.55;;;3.28;;
8909;SDS011;4490;49.072;8.804;2023-06-19T08:08:07;3.92;;;3.30;;
8909;SDS011;4490;49.072;8.804;2023-06-19T08:10:32;3.50;;;3.20;;
8909;SDS011;4490;49.072;8.804;2023-06-19T08:12:58;4.03;;;3.63;;
8909;SDS011;4490;49.072;8.804;2023-06-19T08:15:23;3.97;;;3.17;;
8909;SDS011;4490;49.072;8.804;2023-06-19T08:17:49;4.82;;;3.65;;
8909;SDS011;4490;49.072;8.804;2023-06-19T08:20:15;4.10;;;3.33;;
8909;SDS011;4490;49.072;8.804;2023-06-19T08:22:41;3.58;;;3.30;;
8909;SDS011;4490;49.072;8.804;2023-06-19T08:25:06;3.70;;;3.40;;
8909;SDS011;4490;49.072;8.804;2023-06-19T08:27:32;9.80;;;4.95;;
8909;SDS011;4490;49.072;8.804;2023-06-19T08:29:58;3.28;;;3.08;;
8909;SDS011;4490;49.072;8.804;2023-06-19T08:32:24;4.30;;;3.55;;
8909;SDS011;4490;49.072;8.804;2023-06-19T08:34:50;3.50;;;3.30;;
8909;SDS011;4490;49.072;8.804;2023-06-19T08:37:16;4.10;;;3.42;;
8909;SDS011;4490;49.072;8.804;2023-06-19T08:39:43;4.47;;;3.60;;
8909;SDS011;4490;49.072;8.804;2023-06-19T08:42:09;3.40;;;3.10;;
8909;SDS011;4490;49.072;8.804;2023-06-19T08:44:35;3.50;;;3.20;;
8909;SDS011;4490;49.072;8.804;2023-06-19T08:47:01;3.85;;;3.40;;
8909;SDS011;4490;49.072;8.804;2023-06-19T08:49:31;3.85;;;3.50;;
8909;SDS011;4490;49.072;8.804;2023-06-19T08:52:01;3.97;;;3.67;;
8909;SDS011;4490;49.072;8.804;2023-06-19T08:54:27;4.18;;;3.85;;
8909;SDS011;4490;49.072;8.804;2023-06-19T08:56:53;4.22;;;3.83;;
8909;SDS011;4490;49.072;8.804;2023-06-19T08:59:19;4.13;;;3.83;;
8909;SDS011;4490;49.072;8.804;2023-06-19T09:01:52;3.97;;;3.67;;
8909;SDS011;4490;49.072;8.804;2023-06-19T09:04:19;5.45;;;4.00;;
8909;SDS011;4490;49.072;8.804;2023-06-19T09:09:23;5.88;;;4.00;;
8909;SDS011;4490;49.072;8.804;2023-06-19T09:14:36;5.13;;;4.63;;
8909;SDS011;4490;49.072;8.804;2023-06-19T09:17:04;4.82;;;4.43;;
8909;SDS011;4490;49.072;8.804;2023-06-19T09:19:31;6.07;;;4.35;;
8909;SDS011;4490;49.072;8.804;2023-06-19T09:22:03;5.32;;;4.88;;
8909;SDS011;4490;49.072;8.804;2023-06-19T09:24:37;5.28;;;4.57;;
8909;SDS011;4490;49.072;8.804;2023-06-19T09:27:08;5.10;;;4.60;;
8909;SDS011;4490;49.072;8.804;2023-06-19T09:29:45;5.25;;;4.75;;
8909;SDS011;4490;49.072;8.804;2023-06-19T09:32:22;6.47;;;5.55;;
8909;SDS011;4490;49.072;8.804;2023-06-19T09:34:54;7.63;;;5.60;;
8909;SDS011;4490;49.072;8.804;2023-06-19T09:37:24;5.90;;;5.40;;
8909;SDS011;4490;49.072;8.804;2023-06-19T09:39:55;5.47;;;4.97;;
8909;SDS011;4490;49.072;8.804;2023-06-19T09:42:30;5.82;;;4.90;;
8909;SDS011;4490;49.072;8.804;2023-06-19T09:45:03;5.22;;;4.72;;
8909;SDS011;4490;49.072;8.804;2023-06-19T09:47:35;5.35;;;4.95;;
8909;SDS011;4490;49.072;8.804;2023-06-19T09:50:03;5.88;;;4.40;;
8909;SDS011;4490;49.072;8.804;2023-06-19T09:52:29;5.32;;;4.47;;
8909;SDS011;4490;49.072;8.804;2023-06-19T09:54:55;5.43;;;4.78;;
8909;SDS011;4490;49.072;8.804;2023-06-19T09:57:22;5.72;;;5.13;;
8909;SDS011;4490;49.072;8.804;2023-06-19T09:59:55;4.97;;;4.57;;
8909;SDS011;4490;49.072;8.804;2023-06-19T10:02:22;5.05;;;4.55;;
8909;SDS011;4490;49.072;8.804;2023-06-19T10:04:49;5.28;;;4.88;;
8909;SDS011;4490;49.072;8.804;2023-06-19T10:07:23;4.97;;;4.57;;
8909;SDS011;4490;49.072;8.804;2023-06-19T10:09:59;5.78;;;5.30;;
8909;SDS011;4490;49.072;8.804;2023-06-19T10:15:49;5.43;;;4.93;;
8909;SDS011;4490;49.072;8.804;2023-06-19T10:18:00;6.57;;;5.07;;
8909;SDS011;4490;49.072;8.804;2023-06-19T10:20:31;4.65;;;4.35;;
8909;SDS011;4490;49.072;8.804;2023-06-19T10:25:32;5.20;;;4.70;;
8909;SDS011;4490;49.072;8.804;2023-06-19T10:27:59;5.63;;;5.10;;
8909;SDS011;4490;49.072;8.804;2023-06-19T10:30:25;5.20;;;4.80;;
8909;SDS011;4490;49.072;8.804;2023-06-19T10:32:51;4.93;;;4.32;;
8909;SDS011;4490;49.072;8.804;2023-06-19T10:35:18;5.10;;;4.53;;
8909;SDS011;4490;49.072;8.804;2023-06-19T10:37:46;5.00;;;4.60;;
8909;SDS011;4490;49.072;8.804;2023-06-19T10:40:13;5.45;;;4.57;;
8909;SDS011;4490;49.072;8.804;2023-06-19T10:42:39;4.93;;;4.45;;
8909;SDS011;4490;49.072;8.804;2023-06-19T10:45:06;4.97;;;4.50;;
8909;SDS011;4490;49.072;8.804;2023-06-19T10:47:43;5.45;;;5.03;;
8909;SDS011;4490;49.072;8.804;2023-06-19T10:50:13;6.20;;;4.80;;
8909;SDS011;4490;49.072;8.804;2023-06-19T10:52:40;5.85;;;4.60;;
8909;SDS011;4490;49.072;8.804;2023-06-19T10:55:07;4.65;;;4.25;;
8909;SDS011;4490;49.072;8.804;2023-06-19T10:57:33;4.68;;;4.30;;
8909;SDS011;4490;49.072;8.804;2023-06-19T10:59:58;5.03;;;4.50;;
8909;SDS011;4490;49.072;8.804;2023-06-19T11:02:24;5.28;;;4.68;;
8909;SDS011;4490;49.072;8.804;2023-06-19T11:04:54;4.97;;;4.57;;
8909;SDS011;4490;49.072;8.804;2023-06-19T11:07:20;6.05;;;4.55;;
8909;SDS011;4490;49.072;8.804;2023-06-19T11:09:47;4.72;;;4.32;;
8909;SDS011;4490;49.072;8.804;2023-06-19T11:12:19;5.15;;;4.75;;
8909;SDS011;4490;49.072;8.804;2023-06-19T11:14:46;5.00;;;4.60;;
8909;SDS011;4490;49.072;8.804;2023-06-19T11:17:12;5.38;;;4.82;;
8909;SDS011;4490;49.072;8.804;2023-06-19T11:19:38;5.35;;;4.85;;
8909;SDS011;4490;49.072;8.804;2023-06-19T11:22:07;5.05;;;4.65;;
8909;SDS011;4490;49.072;8.804;2023-06-19T11:24:32;4.45;;;4.05;;
8909;SDS011;4490;49.072;8.804;2023-06-19T11:26:58;4.53;;;4.13;;
8909;SDS011;4490;49.072;8.804;2023-06-19T11:29:25;5.95;;;5.00;;
8909;SDS011;4490;49.072;8.804;2023-06-19T11:32:03;4.97;;;4.57;;
8909;SDS011;4490;49.072;8.804;2023-06-19T11:34:32;5.38;;;4.88;;
8909;SDS011;4490;49.072;8.804;2023-06-19T11:37:22;4.70;;;4.30;;
8909;SDS011;4490;49.072;8.804;2023-06-19T11:39:48;4.88;;;4.47;;
8909;SDS011;4490;49.072;8.804;2023-06-19T11:42:15;5.53;;;4.90;;
8909;SDS011;4490;49.072;8.804;2023-06-19T11:44:57;5.47;;;4.95;;
8909;SDS011;4490;49.072;8.804;2023-06-19T11:47:29;5.55;;;5.05;;
8909;SDS011;4490;49.072;8.804;2023-06-19T11:49:56;5.30;;;4.90;;
8909;SDS011;4490;49.072;8.804;2023-06-19T11:52:22;5.53;;;5.13;;
8909;SDS011;4490;49.072;8.804;2023-06-19T11:54:48;5.40;;;5.00;;
8909;SDS011;4490;49.072;8.804;2023-06-19T11:57:14;5.20;;;4.80;;
8909;SDS011;4490;49.072;8.804;2023-06-19T11:59:41;5.28;;;4.88;;
8909;SDS011;4490;49.072;8.804;2023-06-19T12:02:07;5.22;;;4.82;;
8909;SDS011;4490;49.072;8.804;2023-06-19T12:04:34;5.47;;;4.97;;
8909;SDS011;4490;49.072;8.804;2023-06-19T12:07:00;4.80;;;4.43;;
8909;SDS011;4490;49.072;8.804;2023-06-19T12:09:26;4.85;;;4.45;;
8909;SDS011;4490;49.072;8.804;2023-06-19T12:11:52;5.80;;;4.68;;
8909;SDS011;4490;49.072;8.804;2023-06-19T12:14:18;5.07;;;4.07;;
8909;SDS011;4490;49.072;8.804;2023-06-19T12:16:47;5.22;;;4.63;;
8909;SDS011;4490;49.072;8.804;2023-06-19T12:19:13;4.60;;;4.20;;
8909;SDS011;4490;49.072;8.804;2023-06-19T12:21:39;5.18;;;4.68;;
8909;SDS011;4490;49.072;8.804;2023-06-19T12:24:05;5.70;;;4.93;;
8909;SDS011;4490;49.072;8.804;2023-06-19T12:26:31;5.82;;;5.28;;
8909;SDS011;4490;49.072;8.804;2023-06-19T12:29:01;4.30;;;4.00;;
8909;SDS011;4490;49.072;8.804;2023-06-19T12:31:33;5.28;;;4.38;;
8909;SDS011;4490;49.072;8.804;2023-06-19T12:34:01;4.70;;;4.30;;
8909;SDS011;4490;49.072;8.804;2023-06-19T12:36:27;4.78;;;4.38;;
8909;SDS011;4490;49.072;8.804;2023-06-19T12:38:53;5.07;;;4.68;;
8909;SDS011;4490;49.072;8.804;2023-06-19T12:41:19;4.50;;;4.20;;
8909;SDS011;4490;49.072;8.804;2023-06-19T12:43:46;5.68;;;5.18;;
8909;SDS011;4490;49.072;8.804;2023-06-19T12:46:12;4.78;;;4.38;;
8909;SDS011;4490;49.072;8.804;2023-06-19T12:48:37;5.07;;;4.68;;
8909;SDS011;4490;49.072;8.804;2023-06-19T12:51:03;5.10;;;4.70;;
8909;SDS011;4490;49.072;8.804;2023-06-19T12:53:29;5.90;;;5.03;;
8909;SDS011;4490;49.072;8.804;2023-06-19T12:55:58;5.40;;;5.00;;
8909;SDS011;4490;49.072;8.804;2023-06-19T12:58:24;5.78;;;5.25;;
8909;SDS011;4490;49.072;8.804;2023-06-19T13:00:50;5.50;;;5.00;;
8909;SDS011;4490;49.072;8.804;2023-06-19T13:03:16;5.03;;;4.63;;
8909;SDS011;4490;49.072;8.804;2023-06-19T13:05:42;5.30;;;4.90;;
8909;SDS011;4490;49.072;8.804;2023-06-19T13:08:07;5.22;;;4.82;;
8909;SDS011;4490;49.072;8.804;2023-06-19T13:10:33;5.63;;;5.10;;
8909;SDS011;4490;49.072;8.804;2023-06-19T13:12:59;5.32;;;4.82;;
8909;SDS011;4490;49.072;8.804;2023-06-19T13:15:24;7.18;;;5.10;;
8909;SDS011;4490;49.072;8.804;2023-06-19T13:17:50;5.68;;;5.18;;
8909;SDS011;4490;49.072;8.804;2023-06-19T13:20:16;5.60;;;5.20;;
8909;SDS011;4490;49.072;8.804;2023-06-19T13:22:42;4.93;;;4.40;;
8909;SDS011;4490;49.072;8.804;2023-06-19T13:25:08;6.53;;;4.50;;
8909;SDS011;4490;49.072;8.804;2023-06-19T13:27:34;5.22;;;4.78;;
8909;SDS011;4490;49.072;8.804;2023-06-19T13:30:00;5.18;;;4.68;;
8909;SDS011;4490;49.072;8.804;2023-06-19T13:32:26;5.28;;;4.78;;
8909;SDS011;4490;49.072;8.804;2023-06-19T13:34:52;6.15;;;5.18;;
8909;SDS011;4490;49.072;8.804;2023-06-19T13:37:18;5.18;;;4.78;;
8909;SDS011;4490;49.072;8.804;2023-06-19T13:39:44;5.20;;;4.80;;
8909;SDS011;4490;49.072;8.804;2023-06-19T13:42:10;5.13;;;4.72;;
8909;SDS011;4490;49.072;8.804;2023-06-19T13:44:36;5.88;;;5.18;;
8909;SDS011;4490;49.072;8.804;2023-06-19T13:47:02;5.38;;;4.97;;
8909;SDS011;4490;49.072;8.804;2023-06-19T13:49:28;5.53;;;4.85;;
8909;SDS011;4490;49.072;8.804;2023-06-19T13:51:54;5.68;;;4.93;;
8909;SDS011;4490;49.072;8.804;2023-06-19T13:54:20;5.13;;;4.68;;
8909;SDS011;4490;49.072;8.804;2023-06-19T13:56:46;5.25;;;4.78;;
8909;SDS011;4490;49.072;8.804;2023-06-19T13:59:13;5.30;;;4.80;;
8909;SDS011;4490;49.072;8.804;2023-06-19T14:01:39;5.40;;;4.85;;
8909;SDS011;4490;49.072;8.804;2023-06-19T14:04:06;5.50;;;5.10;;
8909;SDS011;4490;49.072;8.804;2023-06-19T14:06:32;5.18;;;4.75;;
8909;SDS011;4490;49.072;8.804;2023-06-19T14:08:57;5.07;;;4.68;;
8909;SDS011;4490;49.072;8.804;2023-06-19T14:11:23;5.30;;;4.80;;
8909;SDS011;4490;49.072;8.804;2023-06-19T14:13:48;6.05;;;5.55;;
8909;SDS011;4490;49.072;8.804;2023-06-19T14:16:14;5.18;;;4.78;;
8909;SDS011;4490;49.072;8.804;2023-06-19T14:18:41;5.40;;;5.00;;
8909;SDS011;4490;49.072;8.804;2023-06-19T14:21:06;5.20;;;4.80;;
8909;SDS011;4490;49.072;8.804;2023-06-19T14:23:32;5.20;;;4.80;;
8909;SDS011;4490;49.072;8.804;2023-06-19T14:25:59;5.32;;;4.88;;
8909;SDS011;4490;49.072;8.804;2023-06-19T14:28:24;5.05;;;4.72;;
8909;SDS011;4490;49.072;8.804;2023-06-19T14:30:50;5.13;;;4.68;;
8909;SDS011;4490;49.072;8.804;2023-06-19T14:33:16;5.65;;;5.18;;
8909;SDS011;4490;49.072;8.804;2023-06-19T14:35:42;5.63;;;5.20;;
8909;SDS011;4490;49.072;8.804;2023-06-19T14:38:10;4.80;;;4.50;;
8909;SDS011;4490;49.072;8.804;2023-06-19T14:40:40;5.10;;;4.70;;
8909;SDS011;4490;49.072;8.804;2023-06-19T14:43:06;5.25;;;4.68;;
8909;SDS011;4490;49.072;8.804;2023-06-19T14:45:34;4.72;;;4.32;;
8909;SDS011;4490;49.072;8.804;2023-06-19T14:47:59;5.25;;;4.72;;
8909;SDS011;4490;49.072;8.804;2023-06-19T14:50:25;4.60;;;4.20;;
8909;SDS011;4490;49.072;8.804;2023-06-19T14:52:50;4.40;;;4.00;;
8909;SDS011;4490;49.072;8.804;2023-06-19T14:55:16;5.00;;;4.57;;
8909;SDS011;4490;49.072;8.804;2023-06-19T14:57:42;4.80;;;4.40;;
8909;SDS011;4490;49.072;8.804;2023-06-19T15:00:07;4.65;;;4.10;;
8909;SDS011;4490;49.072;8.804;2023-06-19T15:02:34;4.57;;;4.22;;
8909;SDS011;4490;49.072;8.804;2023-06-19T15:05:00;5.18;;;3.80;;
8909;SDS011;4490;49.072;8.804;2023-06-19T15:07:26;4.22;;;3.92;;
8909;SDS011;4490;49.072;8.804;2023-06-19T15:09:51;4.43;;;4.13;;
8909;SDS011;4490;49.072;8.804;2023-06-19T15:12:17;4.90;;;4.50;;
8909;SDS011;4490;49.072;8.804;2023-06-19T15:14:42;5.50;;;4.50;;
8909;SDS011;4490;49.072;8.804;2023-06-19T15:17:09;4.70;;;4.40;;
8909;SDS011;4490;49.072;8.804;2023-06-19T15:19:35;4.70;;;4.30;;
8909;SDS011;4490;49.072;8.804;2023-06-19T15:22:01;4.50;;;4.20;;
8909;SDS011;4490;49.072;8.804;2023-06-19T15:24:26;4.80;;;4.50;;
8909;SDS011;4490;49.072;8.804;2023-06-19T15:26:52;5.30;;;4.80;;